createdAt,value
2018-10-09T00:01:59.600Z,8.40
2018-10-09T00:04:28.041Z,8.40
2018-10-09T00:06:56.490Z,8.40
2018-10-09T00:09:24.924Z,8.30
2018-10-09T00:11:53.444Z,8.30
2018-10-09T00:14:21.897Z,8.30
2018-10-09T00:16:50.308Z,8.30
2018-10-09T00:19:18.838Z,8.30
2018-10-09T00:21:47.277Z,8.30
2018-10-09T00:24:15.700Z,8.20
2018-10-09T00:26:44.188Z,8.20
2018-10-09T00:29:12.644Z,8.20
2018-10-09T00:31:41.080Z,8.20
2018-10-09T00:34:09.501Z,8.20
2018-10-09T00:36:37.931Z,8.10
2018-10-09T00:39:08.053Z,8.10
2018-10-09T00:41:36.507Z,8.10
2018-10-09T00:44:05.005Z,8.10
2018-10-09T00:46:33.529Z,8.10
2018-10-09T00:49:02.096Z,8.00
2018-10-09T00:51:30.565Z,8.00
2018-10-09T00:53:59.016Z,8.00
2018-10-09T00:56:27.495Z,8.00
2018-10-09T00:58:55.946Z,8.00
2018-10-09T01:01:24.389Z,8.00
2018-10-09T01:03:52.852Z,7.90
2018-10-09T01:06:21.316Z,7.90
2018-10-09T01:08:49.764Z,7.90
2018-10-09T01:11:18.221Z,7.80
2018-10-09T01:13:47.022Z,7.80
2018-10-09T01:16:17.017Z,7.80
2018-10-09T01:18:45.757Z,7.80
2018-10-09T01:21:14.167Z,7.80
2018-10-09T01:23:42.585Z,7.80
2018-10-09T01:26:11.018Z,7.80
2018-10-09T01:28:40.280Z,7.80
2018-10-09T01:31:08.753Z,7.80
2018-10-09T01:33:37.192Z,7.70
2018-10-09T01:36:05.654Z,7.70
2018-10-09T01:38:34.080Z,7.70
2018-10-09T01:41:02.645Z,7.70
2018-10-09T01:43:31.076Z,7.70
2018-10-09T01:45:59.503Z,7.60
2018-10-09T01:48:27.929Z,7.60
2018-10-09T01:50:56.371Z,7.60
2018-10-09T01:53:24.845Z,7.60
2018-10-09T01:55:53.288Z,7.60
2018-10-09T01:58:21.756Z,7.60
2018-10-09T02:00:50.229Z,7.50
2018-10-09T02:03:18.653Z,7.50
2018-10-09T02:05:47.089Z,7.50
2018-10-09T02:08:15.504Z,7.50
2018-10-09T02:10:43.955Z,7.40
2018-10-09T02:13:12.375Z,7.40
2018-10-09T02:15:40.853Z,7.40
2018-10-09T02:18:09.276Z,7.40
2018-10-09T02:20:37.711Z,7.40
2018-10-09T02:23:06.173Z,7.30
2018-10-09T02:25:34.602Z,7.30
2018-10-09T02:28:03.049Z,7.30
2018-10-09T02:30:31.487Z,7.30
2018-10-09T02:32:59.927Z,7.30
2018-10-09T02:35:28.392Z,7.30
2018-10-09T02:37:56.805Z,7.30
2018-10-09T02:40:25.654Z,7.20
2018-10-09T02:42:54.096Z,7.20
2018-10-09T02:45:22.514Z,7.20
2018-10-09T02:47:50.987Z,7.20
2018-10-09T02:50:19.409Z,7.20
2018-10-09T02:52:47.840Z,7.10
2018-10-09T02:55:16.295Z,7.10
2018-10-09T02:57:44.723Z,7.10
2018-10-09T03:00:13.152Z,7.10
2018-10-09T03:02:41.581Z,7.10
2018-10-09T03:05:10.025Z,7.00
2018-10-09T03:07:38.458Z,7.00
2018-10-09T03:10:07.258Z,7.00
2018-10-09T03:12:35.687Z,7.00
2018-10-09T03:15:04.594Z,7.00
2018-10-09T03:17:33.056Z,7.00
2018-10-09T03:20:01.516Z,7.00
2018-10-09T03:22:29.980Z,7.00
2018-10-09T03:24:58.439Z,7.00
2018-10-09T03:27:27.431Z,6.90
2018-10-09T03:29:55.865Z,6.90
2018-10-09T03:32:24.285Z,6.90
2018-10-09T03:34:52.701Z,6.90
2018-10-09T03:37:21.417Z,6.90
2018-10-09T03:39:49.840Z,6.90
2018-10-09T03:42:18.356Z,6.90
2018-10-09T03:44:46.798Z,6.90
2018-10-09T03:47:15.237Z,6.90
2018-10-09T03:49:43.677Z,6.90
2018-10-09T03:52:12.119Z,6.90
2018-10-09T03:54:40.548Z,6.90
2018-10-09T03:57:08.982Z,6.80
2018-10-09T03:59:37.413Z,6.80
2018-10-09T04:02:05.864Z,6.80
2018-10-09T04:04:34.785Z,6.80
2018-10-09T04:07:07.352Z,6.80
2018-10-09T04:09:36.256Z,6.80
2018-10-09T04:12:04.656Z,6.90
2018-10-09T04:14:33.078Z,6.90
2018-10-09T04:17:01.852Z,6.90
2018-10-09T04:19:30.343Z,6.90
2018-10-09T04:21:58.741Z,6.80
2018-10-09T04:24:27.274Z,6.90
2018-10-09T04:26:55.986Z,6.90
2018-10-09T04:29:24.927Z,6.90
2018-10-09T04:31:53.836Z,6.90
2018-10-09T04:34:22.590Z,6.90
2018-10-09T04:36:51.073Z,6.80
2018-10-09T04:39:19.945Z,6.80
2018-10-09T04:41:48.390Z,6.80
2018-10-09T04:44:21.528Z,6.80
2018-10-09T04:46:50.213Z,6.80
2018-10-09T04:49:19.101Z,6.80
2018-10-09T04:51:47.591Z,6.80
2018-10-09T04:54:16.053Z,6.80
2018-10-09T04:56:44.533Z,6.80
2018-10-09T04:59:13.347Z,6.70
2018-10-09T05:01:42.223Z,6.70
2018-10-09T05:04:11.477Z,6.70
2018-10-09T05:06:40.540Z,6.70
2018-10-09T05:09:10.486Z,6.70
2018-10-09T05:11:38.944Z,6.70
2018-10-09T05:14:08.067Z,6.70
2018-10-09T05:16:37.196Z,6.70
2018-10-09T05:19:05.899Z,6.70
2018-10-09T05:21:34.629Z,6.70
2018-10-09T05:24:03.827Z,6.70
2018-10-09T05:26:32.366Z,6.70
2018-10-09T05:29:00.842Z,6.70
2018-10-09T05:31:29.337Z,6.70
2018-10-09T05:33:58.013Z,6.70
2018-10-09T05:36:26.471Z,6.70
2018-10-09T05:38:54.890Z,6.70
2018-10-09T05:41:23.338Z,6.80
2018-10-09T05:43:51.786Z,6.80
2018-10-09T05:46:20.417Z,6.80
2018-10-09T05:48:48.843Z,6.70
2018-10-09T05:51:17.305Z,6.80
2018-10-09T05:53:45.762Z,6.80
2018-10-09T05:56:14.218Z,6.80
2018-10-09T05:58:43.444Z,6.70
2018-10-09T06:01:11.908Z,6.70
2018-10-09T06:03:40.730Z,6.70
2018-10-09T06:06:09.662Z,6.70
2018-10-09T06:08:38.113Z,6.70
2018-10-09T06:11:06.616Z,6.70
2018-10-09T06:13:35.586Z,6.70
2018-10-09T06:16:04.206Z,6.70
2018-10-09T06:18:32.524Z,6.80
2018-10-09T06:21:01.502Z,6.80
2018-10-09T06:23:30.516Z,6.80
2018-10-09T06:25:59.004Z,6.80
2018-10-09T06:28:27.502Z,6.80
2018-10-09T06:30:55.861Z,6.80
2018-10-09T06:33:24.304Z,6.80
2018-10-09T06:35:52.794Z,6.90
2018-10-09T06:38:21.201Z,6.90
2018-10-09T06:40:49.658Z,6.90
2018-10-09T06:43:18.133Z,6.90
2018-10-09T06:45:46.993Z,6.90
2018-10-09T06:48:15.401Z,6.90
2018-10-09T06:50:43.824Z,7.00
2018-10-09T06:53:12.301Z,6.90
2018-10-09T06:55:40.711Z,6.90
2018-10-09T06:58:09.156Z,6.90
2018-10-09T07:00:37.633Z,6.90
2018-10-09T07:03:06.654Z,6.90
2018-10-09T07:05:35.507Z,6.90
2018-10-09T07:08:04.528Z,7.00
2018-10-09T07:10:49.655Z,7.00
2018-10-09T07:13:18.641Z,7.00
2018-10-09T07:15:47.789Z,7.10
2018-10-09T07:18:17.206Z,7.10
2018-10-09T07:20:46.982Z,7.20
2018-10-09T07:23:15.605Z,7.20
2018-10-09T07:28:35.738Z,7.40
2018-10-09T07:31:04.677Z,7.40
2018-10-09T07:33:33.518Z,7.40
2018-10-09T07:36:02.292Z,7.60
2018-10-09T07:38:30.979Z,7.60
2018-10-09T07:43:50.240Z,7.70
2018-10-09T07:46:19.186Z,7.80
2018-10-09T07:48:48.025Z,7.90
2018-10-09T07:51:16.713Z,7.90
2018-10-09T07:53:45.570Z,8.00
2018-10-09T07:56:14.440Z,8.10
2018-10-09T07:58:43.477Z,8.20
2018-10-09T08:01:12.470Z,8.30
2018-10-09T08:03:41.652Z,8.40
2018-10-09T08:06:10.605Z,8.50
2018-10-09T08:08:39.368Z,8.60
2018-10-09T08:11:08.306Z,8.60
2018-10-09T08:13:37.295Z,8.70
2018-10-09T08:16:06.308Z,8.80
2018-10-09T08:18:34.836Z,8.80
2018-10-09T08:21:04.250Z,8.80
2018-10-09T08:23:33.006Z,8.90
2018-10-09T08:26:01.449Z,8.90
2018-10-09T08:28:30.258Z,8.90
2018-10-09T08:30:58.950Z,9.00
2018-10-09T08:33:27.436Z,9.00
2018-10-09T08:35:55.908Z,9.00
2018-10-09T08:38:24.345Z,9.10
2018-10-09T08:40:52.784Z,9.10
2018-10-09T08:43:21.200Z,9.20
2018-10-09T08:45:49.617Z,9.30
2018-10-09T08:48:18.070Z,9.40
2018-10-09T08:50:46.514Z,9.50
2018-10-09T08:53:14.945Z,9.60
2018-10-09T08:55:43.414Z,9.70
2018-10-09T08:58:11.844Z,9.80
2018-10-09T09:00:40.291Z,9.90
2018-10-09T09:03:08.724Z,10.00
2018-10-09T09:05:37.178Z,10.10
2018-10-09T09:08:05.633Z,10.20
2018-10-09T09:10:34.081Z,10.40
2018-10-09T09:13:02.521Z,10.50
2018-10-09T09:15:31.091Z,10.60
2018-10-09T09:17:59.461Z,10.80
2018-10-09T09:20:27.966Z,10.90
2018-10-09T09:22:56.405Z,11.00
2018-10-09T09:25:24.844Z,11.20
2018-10-09T09:27:53.767Z,11.30
2018-10-09T09:30:22.327Z,11.40
2018-10-09T09:32:50.758Z,11.60
2018-10-09T09:35:19.213Z,11.70
2018-10-09T09:37:47.657Z,11.80
2018-10-09T09:40:16.194Z,12.00
2018-10-09T09:42:44.692Z,12.10
2018-10-09T09:45:13.196Z,12.30
2018-10-09T09:47:41.637Z,12.40
2018-10-09T09:50:10.102Z,12.60
2018-10-09T09:52:38.570Z,12.80
2018-10-09T09:55:07.038Z,13.00
2018-10-09T09:57:35.465Z,13.10
2018-10-09T10:00:03.989Z,13.30
2018-10-09T10:02:32.450Z,13.50
2018-10-09T10:05:00.918Z,13.70
2018-10-09T10:07:29.429Z,13.80
2018-10-09T10:09:57.872Z,14.00
2018-10-09T10:12:26.276Z,14.10
2018-10-09T10:14:54.713Z,14.30
2018-10-09T10:17:23.181Z,14.50
2018-10-09T10:19:51.641Z,14.60
2018-10-09T10:22:20.089Z,14.70
2018-10-09T10:24:48.542Z,14.90
2018-10-09T10:27:16.992Z,15.10
2018-10-09T10:29:45.422Z,15.20
2018-10-09T10:32:13.863Z,15.30
2018-10-09T10:34:42.316Z,15.40
2018-10-09T10:37:10.751Z,15.40
2018-10-09T10:39:39.189Z,15.40
2018-10-09T10:42:07.703Z,15.50
2018-10-09T10:44:36.121Z,15.50
2018-10-09T10:47:05.061Z,15.50
2018-10-09T10:49:33.585Z,15.50
2018-10-09T10:52:01.967Z,15.50
2018-10-09T10:54:30.440Z,15.60
2018-10-09T10:56:58.889Z,15.60
2018-10-09T10:59:27.333Z,15.70
2018-10-09T11:01:55.877Z,15.70
2018-10-09T11:04:24.223Z,15.80
2018-10-09T11:06:52.669Z,15.90
2018-10-09T11:09:21.125Z,15.90
2018-10-09T11:11:49.582Z,16.00
2018-10-09T11:14:18.014Z,16.00
2018-10-09T11:16:46.464Z,16.10
2018-10-09T11:19:14.937Z,16.20
2018-10-09T11:21:43.439Z,16.30
2018-10-09T11:24:11.881Z,16.40
2018-10-09T11:26:40.362Z,16.50
2018-10-09T11:29:08.809Z,16.50
2018-10-09T11:31:37.279Z,16.60
2018-10-09T11:34:05.768Z,16.70
2018-10-09T11:36:34.340Z,16.70
2018-10-09T11:39:02.819Z,16.70
2018-10-09T11:41:31.253Z,16.80
2018-10-09T11:43:59.719Z,16.80
2018-10-09T11:46:28.253Z,16.90
2018-10-09T11:48:56.711Z,16.90
2018-10-09T11:51:25.138Z,17.00
2018-10-09T11:53:53.686Z,17.00
2018-10-09T11:56:22.164Z,17.10
2018-10-09T11:58:50.650Z,17.10
2018-10-09T12:01:19.105Z,17.20
2018-10-09T12:03:47.906Z,17.20
2018-10-09T12:06:16.464Z,17.30
2018-10-09T12:08:44.925Z,17.30
2018-10-09T12:11:13.373Z,17.40
2018-10-09T12:13:41.825Z,17.40
2018-10-09T12:16:10.270Z,17.40
2018-10-09T12:18:38.708Z,17.40
2018-10-09T12:21:07.177Z,17.50
2018-10-09T12:23:35.714Z,17.50
2018-10-09T12:26:04.213Z,17.50
2018-10-09T12:28:32.657Z,17.50
2018-10-09T12:31:01.294Z,17.60
2018-10-09T12:33:29.758Z,17.60
2018-10-09T12:35:58.218Z,17.60
2018-10-09T12:38:26.693Z,17.60
2018-10-09T12:40:55.105Z,17.70
2018-10-09T12:43:23.608Z,17.70
2018-10-09T12:45:52.032Z,17.70
2018-10-09T12:48:20.474Z,17.60
2018-10-09T12:50:49.045Z,17.60
2018-10-09T12:53:17.534Z,17.70
2018-10-09T12:55:45.973Z,17.70
2018-10-09T12:58:14.409Z,17.70
2018-10-09T13:00:42.853Z,17.80
2018-10-09T13:03:11.310Z,17.70
2018-10-09T13:05:39.779Z,17.80
2018-10-09T13:08:08.237Z,17.80
2018-10-09T13:10:36.697Z,17.80
2018-10-09T13:13:05.119Z,17.90
2018-10-09T13:15:33.570Z,17.90
2018-10-09T13:18:02.033Z,17.90
2018-10-09T13:20:30.502Z,18.00
2018-10-09T13:22:59.043Z,18.00
2018-10-09T13:25:27.456Z,18.00
2018-10-09T13:27:55.925Z,17.90
2018-10-09T13:30:24.402Z,17.90
2018-10-09T13:32:52.840Z,17.90
2018-10-09T13:35:21.321Z,17.90
2018-10-09T13:37:49.856Z,17.80
2018-10-09T13:40:18.307Z,17.80
2018-10-09T13:42:46.845Z,17.70
2018-10-09T13:45:15.321Z,17.60
2018-10-09T13:47:43.827Z,17.60
2018-10-09T13:50:12.291Z,17.50
2018-10-09T13:52:41.054Z,17.50
2018-10-09T13:55:10.857Z,17.40
2018-10-09T13:57:39.261Z,17.30
2018-10-09T14:00:07.778Z,17.30
2018-10-09T14:02:36.310Z,17.30
2018-10-09T14:05:06.680Z,17.30
2018-10-09T14:07:35.324Z,17.20
2018-10-09T14:10:04.687Z,17.10
2018-10-09T14:12:34.432Z,17.20
2018-10-09T14:15:03.314Z,17.10
2018-10-09T14:17:32.119Z,17.20
2018-10-09T14:20:00.920Z,17.10
2018-10-09T14:22:29.645Z,17.20
2018-10-09T14:24:58.436Z,17.20
2018-10-09T14:27:27.372Z,17.30
2018-10-09T14:31:20.873Z,17.40
2018-10-09T14:33:50.192Z,17.50
2018-10-09T14:36:18.942Z,17.70
2018-10-09T14:38:47.923Z,17.80
2018-10-09T14:41:16.899Z,17.80
2018-10-09T14:43:45.494Z,17.90
2018-10-09T14:46:14.538Z,18.00
2018-10-09T14:48:43.788Z,18.10
2018-10-09T14:51:12.792Z,18.10
2018-10-09T14:53:42.635Z,18.20
2018-10-09T14:56:11.614Z,18.20
2018-10-09T14:58:40.498Z,18.20
2018-10-09T15:01:09.630Z,18.20
2018-10-09T15:03:39.592Z,18.20
2018-10-09T15:06:09.342Z,18.20
2018-10-09T15:10:02.591Z,18.20
2018-10-09T15:12:31.817Z,18.20
2018-10-09T15:15:00.707Z,18.10
2018-10-09T15:17:29.395Z,18.00
2018-10-09T15:19:58.112Z,18.00
2018-10-09T15:22:26.698Z,18.00
2018-10-09T15:24:55.285Z,17.90
2018-10-09T15:27:24.135Z,17.80
2018-10-09T15:29:53.193Z,17.80
2018-10-09T15:32:22.275Z,17.70
2018-10-09T15:34:51.142Z,17.70
2018-10-09T15:37:20.995Z,17.60
2018-10-09T15:39:49.762Z,17.60
2018-10-09T15:42:19.258Z,17.50
2018-10-09T15:44:49.924Z,17.50
2018-10-09T15:47:19.440Z,17.40
2018-10-09T15:49:48.570Z,17.40
2018-10-09T15:52:18.469Z,17.30
2018-10-09T15:54:47.168Z,17.30
2018-10-09T15:57:15.866Z,17.20
2018-10-09T15:59:45.185Z,17.20
2018-10-09T16:02:14.053Z,17.10
2018-10-09T16:04:43.652Z,17.10
2018-10-09T16:07:12.921Z,17.00
2018-10-09T16:09:41.796Z,16.90
2018-10-09T16:12:10.531Z,16.80
2018-10-09T16:14:39.617Z,16.80
2018-10-09T16:17:08.282Z,16.70
2018-10-09T16:19:37.014Z,16.60
2018-10-09T16:22:06.224Z,16.50
2018-10-09T16:24:36.193Z,16.40
2018-10-09T16:27:06.395Z,16.40
2018-10-09T16:29:36.041Z,16.30
2018-10-09T16:32:04.827Z,16.10
2018-10-09T16:34:33.866Z,16.10
2018-10-09T16:37:02.733Z,16.00
2018-10-09T16:39:32.075Z,15.80
2018-10-09T16:42:00.899Z,15.70
2018-10-09T16:44:31.703Z,15.60
2018-10-09T16:47:05.338Z,15.50
2018-10-09T16:49:36.190Z,15.40
2018-10-09T16:52:06.647Z,15.20
2018-10-09T16:54:36.003Z,15.10
2018-10-09T16:57:06.189Z,15.00
2018-10-09T16:59:36.424Z,14.90
2018-10-09T17:02:05.335Z,14.80
2018-10-09T17:04:34.523Z,14.70
2018-10-09T17:07:03.667Z,14.60
2018-10-09T17:09:32.610Z,14.50
2018-10-09T17:12:02.635Z,14.40
2018-10-09T17:14:40.777Z,14.40
2018-10-09T17:17:11.413Z,14.30
2018-10-09T17:19:43.675Z,14.20
2018-10-09T17:22:13.288Z,14.10
2018-10-09T17:24:42.185Z,14.10
2018-10-09T17:27:11.621Z,14.00
2018-10-09T17:29:40.814Z,13.90
2018-10-09T17:32:10.638Z,13.80
2018-10-09T17:34:40.998Z,13.80
2018-10-09T17:37:10.303Z,13.70
2018-10-09T17:39:39.128Z,13.60
2018-10-09T17:42:08.051Z,13.60
2018-10-09T17:47:28.290Z,13.50
2018-10-09T17:49:57.763Z,13.40
2018-10-09T17:52:27.446Z,13.30
2018-10-09T17:54:56.324Z,13.30
2018-10-09T17:57:24.911Z,13.20
2018-10-09T17:59:53.399Z,13.10
2018-10-09T18:02:23.646Z,13.10
2018-10-09T18:04:53.179Z,13.00
2018-10-09T18:07:22.111Z,13.00
2018-10-09T18:09:51.274Z,12.90
2018-10-09T18:12:20.659Z,12.80
2018-10-09T18:14:49.671Z,12.80
2018-10-09T18:17:20.146Z,12.80
2018-10-09T18:19:49.100Z,12.70
2018-10-09T18:22:18.630Z,12.60
2018-10-09T18:24:47.487Z,12.60
2018-10-09T18:27:16.171Z,12.50
2018-10-09T18:29:45.783Z,12.50
2018-10-09T18:32:15.137Z,12.40
2018-10-09T18:34:44.946Z,12.40
2018-10-09T18:37:14.393Z,12.40
2018-10-09T18:39:43.565Z,12.30
2018-10-09T18:42:12.152Z,12.30
2018-10-09T18:44:41.436Z,12.20
2018-10-09T18:47:15.784Z,12.20
2018-10-09T18:49:45.381Z,12.20
2018-10-09T18:52:14.369Z,12.10
2018-10-09T18:54:43.296Z,12.10
2018-10-09T18:57:12.595Z,12.00
2018-10-09T18:59:41.546Z,12.00
2018-10-09T19:02:10.930Z,11.90
2018-10-09T19:04:40.491Z,11.90
2018-10-09T19:07:09.303Z,11.90
2018-10-09T19:09:37.967Z,11.80
2018-10-09T19:12:07.455Z,11.80
2018-10-09T19:23:19.544Z,11.60
2018-10-09T19:25:48.650Z,11.60
2018-10-09T19:28:17.137Z,11.50
2018-10-09T19:30:48.644Z,11.50
2018-10-09T19:33:17.172Z,11.50
2018-10-09T19:35:45.663Z,11.40
2018-10-09T19:38:14.175Z,11.40
2018-10-09T19:40:42.657Z,11.30
2018-10-09T19:43:11.140Z,11.30
2018-10-09T19:45:39.759Z,11.30
2018-10-09T19:48:08.239Z,11.20
2018-10-09T19:50:36.809Z,11.20
2018-10-09T19:53:05.287Z,11.20
2018-10-09T19:55:33.749Z,11.10
2018-10-09T19:58:02.339Z,11.10
2018-10-09T20:00:30.880Z,11.00
2018-10-09T20:02:59.728Z,11.00
2018-10-09T20:05:28.194Z,11.00
2018-10-09T20:07:56.753Z,10.90
2018-10-09T20:10:25.297Z,10.90
2018-10-09T20:12:53.774Z,10.90
2018-10-09T20:15:22.632Z,10.90
2018-10-09T20:17:51.160Z,10.80
2018-10-09T20:20:19.725Z,10.80
2018-10-09T20:22:48.255Z,10.80
2018-10-09T20:25:16.904Z,10.70
2018-10-09T20:27:45.400Z,10.70
2018-10-09T20:30:13.922Z,10.70
2018-10-09T20:32:42.816Z,10.60
2018-10-09T20:35:11.278Z,10.60
2018-10-09T20:37:39.737Z,10.60
2018-10-09T20:40:08.225Z,10.50
2018-10-09T20:42:36.657Z,10.50
2018-10-09T20:45:05.712Z,10.50
2018-10-09T20:47:39.624Z,10.40
2018-10-09T20:50:08.117Z,10.40
2018-10-09T20:52:36.561Z,10.40
2018-10-09T20:55:05.820Z,10.30
2018-10-09T20:57:34.281Z,10.30
2018-10-09T21:00:02.763Z,10.30
2018-10-09T21:02:31.289Z,10.30
2018-10-09T21:04:59.730Z,10.20
2018-10-09T21:07:28.141Z,10.20
2018-10-09T21:09:56.586Z,10.20
2018-10-09T21:12:25.137Z,10.20
2018-10-09T21:14:53.561Z,10.10
2018-10-09T21:17:22.059Z,10.10
2018-10-09T21:19:50.495Z,10.00
2018-10-09T21:22:18.954Z,10.10
2018-10-09T21:24:47.382Z,10.00
2018-10-09T21:27:15.830Z,10.00
2018-10-09T21:29:44.335Z,10.00
2018-10-09T21:32:12.699Z,10.00
2018-10-09T21:34:41.496Z,9.90
2018-10-09T21:37:10.026Z,9.90
2018-10-09T21:39:38.445Z,9.90
2018-10-09T21:42:07.196Z,9.80
2018-10-09T21:44:35.636Z,9.80
2018-10-09T21:47:04.106Z,9.80
2018-10-09T21:49:32.552Z,9.80
2018-10-09T21:52:00.988Z,9.80
2018-10-09T21:54:29.416Z,9.80
2018-10-09T21:56:57.885Z,9.70
2018-10-09T21:59:26.310Z,9.70
2018-10-09T22:01:54.735Z,9.70
2018-10-09T22:04:23.164Z,9.70
2018-10-09T22:06:51.595Z,9.70
2018-10-09T22:09:20.025Z,9.70
2018-10-09T22:11:48.464Z,9.60
2018-10-09T22:14:16.933Z,9.60
2018-10-09T22:16:45.837Z,9.60
2018-10-09T22:19:14.289Z,9.50
2018-10-09T22:21:42.718Z,9.50
2018-10-09T22:24:11.238Z,9.50
2018-10-09T22:26:39.681Z,9.50
2018-10-09T22:29:08.136Z,9.50
2018-10-09T22:31:36.581Z,9.50
2018-10-09T22:34:05.005Z,9.40
2018-10-09T22:36:33.795Z,9.40
2018-10-09T22:39:02.239Z,9.40
2018-10-09T22:41:30.682Z,9.40
2018-10-09T22:43:59.177Z,9.30
2018-10-09T22:46:27.978Z,9.30
2018-10-09T22:48:56.508Z,9.30
2018-10-09T22:51:25.001Z,9.30
2018-10-09T22:53:53.471Z,9.20
2018-10-09T22:56:21.940Z,9.20
2018-10-09T22:58:50.378Z,9.20
2018-10-09T23:01:19.208Z,9.10
2018-10-09T23:06:21.601Z,9.10
2018-10-09T23:08:50.066Z,9.10
2018-10-09T23:11:18.512Z,9.10
2018-10-09T23:13:46.969Z,9.10
2018-10-09T23:16:15.401Z,9.10
2018-10-09T23:18:43.872Z,9.10
2018-10-09T23:21:12.288Z,9.00
2018-10-09T23:23:40.800Z,9.00
2018-10-09T23:26:09.213Z,9.00
2018-10-09T23:28:37.658Z,9.00
2018-10-09T23:31:06.352Z,9.00
2018-10-09T23:33:35.146Z,9.00
2018-10-09T23:36:03.928Z,9.00
2018-10-09T23:38:32.380Z,8.90
2018-10-09T23:41:00.850Z,8.90
2018-10-09T23:43:29.260Z,8.90
2018-10-09T23:45:57.710Z,8.90
2018-10-09T23:48:26.151Z,8.90
2018-10-09T23:50:55.021Z,8.90
2018-10-09T23:53:23.483Z,8.80
2018-10-09T23:55:51.930Z,8.80
2018-10-09T23:58:20.374Z,8.80
